Data

From:  To:  PST   UTC
Description Unit Station From To Min. Max. Avg.
Water Temperature at Buoy °C Buoy 2022-09-30 13:46 2022-10-01 00:33 8.11 19.66 12.1
Weather: Air Temperature at Buoy °C Buoy 2022-09-29 09:02 2022-10-02 08:47 13.34 22.11 17.22
Wind Speed at Buoy m/s Buoy 2022-09-29 09:02 2022-10-02 08:47 0 5.13 2.63
Wind Direction at Buoy Deg. Buoy 2022-09-29 09:02 2022-10-02 08:47 0.32 360 41.96
Weather: Air Pressure at Buoy mb Buoy 2022-09-29 09:02 2022-10-02 08:47 1013.4 1023.95 1019.34
Weather: Relative Humidity at Buoy % Buoy 2022-09-29 09:02 2022-10-02 08:47 48.15 91.8 70.46
Weather: Solar Radiation at Buoy W/m² Buoy 2022-09-29 09:02 2022-10-02 08:47 0 624.7 130.03
Flow at Cedar River ft³/s Cedar River 2022-09-29 09:00 2022-10-02 08:45 206 216 210.95
Water Temperature at Cedar River °C Cedar River 2022-09-29 09:00 2022-10-02 08:45 12.1 15.1 13.57
Stage at 37A ft 37A 2022-09-29 09:00 2022-10-02 08:00 1.25 1.27 1.26
Flow at 37A ft³/s 37A 2022-09-29 09:00 2022-10-02 08:00 3.56 3.85 3.66
Flow at Sammish River ft³/s Sammamish River-51T 2022-09-29 09:00 2022-10-02 08:00 40 49 44.51
Water Temperature at Sammish River °C Sammamish River-51T 2022-09-29 09:00 2022-10-02 08:00 15.21 16.96 16.05
Stage at 34A ft 34a 2022-09-29 09:00 2022-10-02 08:00 0.76 0.81 0.79
Flow at 34A ft³/s 34a 2022-09-29 09:00 2022-10-02 08:00 0.97 1.2 1.08
Water Temperature at 34A °C 34a 2022-09-29 09:00 2022-10-02 08:00 13.66 14.21 13.99
Stage at 35C ft 35C 2022-09-29 09:00 2022-10-02 08:00 2.9 2.91 2.91
Flow at 35C ft³/s 35C 2022-09-29 09:00 2022-10-02 08:00 5.97 6.23 6.13
Water Temperature at 35C °C 35C 2022-09-29 09:00 2022-10-02 08:00 12.32 14.27 13.42
Stage at COB-06C ft COB-06C 2022-09-29 09:00 2022-10-02 08:00 0.56 0.58 0.57
Flow at COB-06C ft³/s COB-06C 2022-09-29 09:00 2022-10-02 08:00 6.05 6.5 6.29
Stage at 27A ft 27a 2022-09-29 09:00 2022-10-02 08:00 3.17 3.19 3.18
Flow at 27A ft³/s 27a 2022-09-29 09:00 2022-10-02 08:00 2.9 3.2 3.01
Water Temperature at 27A °C 27a 2022-09-29 09:00 2022-10-02 08:00 13.37 15.04 14.29
Weather: Air Temperature at 27A °C 27a 2022-09-29 09:00 2022-10-02 08:00 12.16 24.79 16
Stage at 58A ft 58a 2022-09-29 09:00 2022-10-02 08:00 1.33 1.36 1.34
Flow at 58A ft³/s 58a 2022-09-29 09:00 2022-10-02 08:00 3.46 4 3.73
Water Temperature at 58A °C 58a 2022-09-29 09:00 2022-10-02 08:00 13.98 15.63 14.89
Weather: Air Temperature at 58A °C 58a 2022-09-29 09:00 2022-10-02 08:00 12.94 26.83 18.3
Stage at Lock ft Lock 2022-09-29 09:00 2022-10-02 08:00 20.01 20.08 20.04
Wind Speed at Tacoma m/s Tacoma Airport 2022-09-29 09:02 2022-10-02 08:47 0 5.13 2.63
Wind Direction at Tacoma Deg. Tacoma Airport 2022-09-29 09:02 2022-10-02 08:47 0.32 360 41.96
Cloud Cover at Tacoma Tacoma Airport 2022-09-29 08:53 2022-10-02 05:53 0 1 0.25
Red lines represent missing data